createdAt,value
2022-10-29T00:01:22.811Z,3.00
2022-10-29T00:04:24.140Z,3.70
2022-10-29T00:07:25.446Z,3.10
2022-10-29T00:10:26.902Z,3.67
2022-10-29T00:13:28.111Z,3.75
2022-10-29T00:16:34.187Z,3.83
2022-10-29T00:19:35.447Z,3.40
2022-10-29T00:22:36.816Z,2.90
2022-10-29T00:25:38.069Z,3.03
2022-10-29T00:28:39.771Z,3.47
2022-10-29T00:31:41.183Z,3.75
2022-10-29T00:34:42.483Z,3.40
2022-10-29T00:37:43.749Z,3.30
2022-10-29T00:40:44.982Z,3.38
2022-10-29T00:43:51.083Z,4.47
2022-10-29T00:47:12.629Z,3.10
2022-10-29T00:50:14.371Z,3.33
2022-10-29T00:53:18.779Z,3.75
2022-10-29T00:56:20.728Z,3.47
2022-10-29T00:59:21.975Z,4.10
2022-10-29T01:02:23.744Z,3.90
2022-10-29T01:05:25.752Z,3.58
2022-10-29T01:08:26.995Z,3.53
2022-10-29T01:11:28.243Z,3.22
2022-10-29T01:14:38.308Z,4.00
2022-10-29T01:18:05.786Z,3.35
2022-10-29T01:21:19.340Z,3.13
2022-10-29T01:24:29.893Z,3.40
2022-10-29T01:27:38.115Z,3.58
2022-10-29T01:30:48.667Z,3.75
2022-10-29T01:33:55.180Z,3.50
2022-10-29T01:36:56.373Z,3.38
2022-10-29T01:40:01.920Z,3.60
2022-10-29T01:43:15.068Z,3.25
2022-10-29T01:46:39.747Z,3.15
2022-10-29T01:49:42.480Z,4.00
2022-10-29T01:52:44.171Z,4.35
2022-10-29T01:55:45.422Z,4.35
2022-10-29T01:58:48.384Z,3.63
2022-10-29T02:02:08.561Z,3.83
2022-10-29T02:05:28.439Z,3.17
2022-10-29T02:08:41.883Z,4.50
2022-10-29T02:11:46.386Z,4.53
2022-10-29T02:14:50.666Z,3.90
2022-10-29T02:20:53.125Z,3.67
2022-10-29T02:23:54.384Z,4.55
2022-10-29T02:26:55.613Z,3.55
2022-10-29T02:29:56.828Z,4.53
2022-10-29T02:32:58.362Z,3.50
2022-10-29T02:35:59.936Z,3.80
2022-10-29T02:39:01.220Z,4.03
2022-10-29T02:42:02.443Z,5.57
2022-10-29T02:45:03.873Z,3.85
2022-10-29T02:48:05.390Z,4.60
2022-10-29T02:51:06.640Z,4.20
2022-10-29T02:54:07.869Z,4.15
2022-10-29T02:57:09.105Z,4.05
2022-10-29T03:00:10.755Z,4.43
2022-10-29T03:03:11.984Z,3.53
2022-10-29T03:06:13.919Z,3.63
2022-10-29T03:09:15.165Z,4.40
2022-10-29T03:12:16.425Z,4.70
2022-10-29T03:15:17.657Z,3.75
2022-10-29T03:18:18.894Z,4.03
2022-10-29T03:21:20.153Z,4.95
2022-10-29T03:24:21.421Z,4.07
2022-10-29T03:27:22.675Z,4.88
2022-10-29T03:30:23.916Z,4.15
2022-10-29T03:33:26.643Z,3.90
2022-10-29T03:36:27.981Z,4.35
2022-10-29T03:39:29.196Z,3.95
2022-10-29T03:42:33.676Z,3.95
2022-10-29T03:45:34.915Z,4.13
2022-10-29T03:48:36.218Z,4.03
2022-10-29T03:51:37.526Z,4.32
2022-10-29T03:54:38.779Z,4.03
2022-10-29T03:57:40.013Z,4.03
2022-10-29T04:00:41.246Z,3.95
2022-10-29T04:03:43.959Z,3.75
2022-10-29T04:06:45.236Z,4.20
2022-10-29T04:09:46.484Z,4.68
2022-10-29T04:12:47.715Z,4.30
2022-10-29T04:15:48.982Z,4.28
2022-10-29T04:18:51.001Z,4.55
2022-10-29T04:24:01.170Z,4.78
2022-10-29T04:28:42.823Z,4.30
2022-10-29T04:31:44.693Z,3.63
2022-10-29T04:34:45.972Z,3.78
2022-10-29T04:37:47.192Z,4.00
2022-10-29T04:40:48.473Z,4.53
2022-10-29T04:43:49.715Z,4.20
2022-10-29T04:46:50.936Z,4.45
2022-10-29T04:49:52.172Z,3.90
2022-10-29T04:52:53.400Z,4.60
2022-10-29T04:56:01.440Z,3.63
2022-10-29T04:59:02.735Z,3.70
2022-10-29T05:02:03.965Z,5.03
2022-10-29T05:05:05.523Z,3.83
2022-10-29T05:08:07.051Z,3.70
2022-10-29T05:11:08.486Z,4.40
2022-10-29T05:14:09.760Z,3.97
2022-10-29T05:17:11.005Z,3.95
2022-10-29T05:20:12.288Z,4.10
2022-10-29T05:23:13.753Z,5.40
2022-10-29T05:26:15.040Z,3.75
2022-10-29T05:29:16.360Z,3.90
2022-10-29T05:32:17.703Z,5.03
2022-10-29T05:35:18.941Z,3.75
2022-10-29T05:38:20.409Z,3.70
2022-10-29T05:41:21.638Z,3.58
2022-10-29T05:44:22.905Z,3.92
2022-10-29T05:47:24.110Z,4.57
2022-10-29T05:50:25.832Z,4.97
2022-10-29T05:53:27.178Z,4.00
2022-10-29T05:56:28.452Z,3.47
2022-10-29T05:59:32.750Z,2.97
2022-10-29T06:02:35.194Z,3.75
2022-10-29T06:05:36.468Z,3.75
2022-10-29T06:08:38.384Z,3.33
2022-10-29T06:11:39.616Z,3.70
2022-10-29T06:14:40.900Z,3.60
2022-10-29T06:17:42.665Z,4.20
2022-10-29T06:20:43.960Z,3.63
2022-10-29T06:23:45.240Z,4.40
2022-10-29T06:26:46.465Z,3.88
2022-10-29T06:29:47.978Z,4.28
2022-10-29T06:32:49.259Z,4.13
2022-10-29T06:35:50.502Z,4.00
2022-10-29T06:38:52.100Z,4.00
2022-10-29T06:41:53.509Z,4.22
2022-10-29T06:44:54.890Z,4.43
2022-10-29T06:47:56.461Z,3.78
2022-10-29T06:50:58.807Z,3.95
2022-10-29T06:54:00.109Z,3.67
2022-10-29T06:57:01.324Z,3.85
2022-10-29T07:00:07.324Z,4.05
2022-10-29T07:03:12.548Z,4.63
2022-10-29T07:06:13.835Z,4.70
2022-10-29T07:09:15.157Z,4.97
2022-10-29T07:12:16.408Z,3.50
2022-10-29T07:15:17.785Z,3.65
2022-10-29T07:18:19.053Z,4.97
2022-10-29T07:21:20.327Z,4.03
2022-10-29T07:24:21.585Z,4.90
2022-10-29T07:27:23.112Z,5.03
2022-10-29T07:30:24.471Z,5.22
2022-10-29T07:33:25.793Z,4.03
2022-10-29T07:36:27.337Z,3.83
2022-10-29T07:39:28.680Z,3.53
2022-10-29T07:42:29.998Z,3.55
2022-10-29T07:45:31.629Z,4.55
2022-10-29T07:48:32.981Z,3.60
2022-10-29T07:51:35.030Z,3.88
2022-10-29T07:54:36.304Z,3.53
2022-10-29T07:57:37.577Z,3.75
2022-10-29T08:00:40.386Z,3.50
2022-10-29T08:03:41.705Z,3.70
2022-10-29T08:06:43.002Z,2.97
2022-10-29T08:09:44.251Z,3.88
2022-10-29T08:12:52.765Z,3.45
2022-10-29T08:15:54.068Z,4.05
2022-10-29T08:18:55.399Z,4.68
2022-10-29T08:21:56.771Z,4.43
2022-10-29T08:24:58.116Z,4.80
2022-10-29T08:28:00.343Z,4.43
2022-10-29T08:31:01.690Z,4.55
2022-10-29T08:34:07.160Z,4.53
2022-10-29T08:37:11.303Z,4.38
2022-10-29T08:40:23.362Z,4.90
2022-10-29T08:43:47.411Z,3.95
2022-10-29T08:46:55.372Z,5.10
2022-10-29T08:50:18.824Z,4.28
2022-10-29T08:53:27.600Z,4.43
2022-10-29T08:56:35.783Z,4.05
2022-10-29T08:59:41.305Z,3.90
2022-10-29T09:02:42.567Z,3.50
2022-10-29T09:06:02.786Z,3.05
2022-10-29T09:09:04.041Z,3.67
2022-10-29T09:12:08.385Z,3.70
2022-10-29T09:15:16.504Z,3.33
2022-10-29T09:18:40.680Z,3.55
2022-10-29T09:21:41.984Z,3.83
2022-10-29T09:24:46.750Z,3.63
2022-10-29T09:28:06.559Z,3.65
2022-10-29T09:31:16.679Z,3.53
2022-10-29T09:34:22.993Z,3.42
2022-10-29T09:37:41.382Z,3.60
2022-10-29T09:40:43.219Z,3.35
2022-10-29T09:43:53.085Z,4.07
2022-10-29T09:47:12.995Z,3.53
2022-10-29T09:50:18.520Z,3.53
2022-10-29T09:53:19.825Z,3.33
2022-10-29T09:56:21.183Z,2.75
2022-10-29T09:59:30.730Z,2.80
2022-10-29T10:02:32.081Z,2.63
2022-10-29T10:05:34.428Z,2.58
2022-10-29T10:08:55.646Z,2.40
2022-10-29T10:11:59.075Z,2.30
2022-10-29T10:15:06.520Z,2.30
2022-10-29T10:18:21.496Z,2.40
2022-10-29T10:21:32.738Z,1.90
2022-10-29T10:24:37.976Z,2.45
2022-10-29T10:27:39.214Z,3.17
2022-10-29T10:30:40.429Z,2.22
2022-10-29T10:33:49.158Z,3.13
2022-10-29T10:37:04.019Z,2.40
2022-10-29T10:40:05.929Z,2.20
2022-10-29T10:43:18.830Z,2.10
2022-10-29T10:46:28.460Z,2.58
2022-10-29T10:49:34.336Z,2.03
2022-10-29T10:52:35.669Z,2.40
2022-10-29T10:55:38.662Z,2.42
2022-10-29T10:58:42.938Z,2.80
2022-10-29T11:01:45.964Z,2.08
2022-10-29T11:04:49.004Z,2.33
2022-10-29T11:08:08.576Z,2.65
2022-10-29T11:11:15.945Z,2.78
2022-10-29T11:14:42.779Z,2.53
2022-10-29T11:18:00.639Z,2.30
2022-10-29T11:21:02.156Z,2.47
2022-10-29T11:24:13.761Z,2.40
2022-10-29T11:27:30.616Z,2.42
2022-10-29T11:30:36.723Z,2.45
2022-10-29T11:33:50.695Z,2.65
2022-10-29T11:37:05.242Z,3.20
2022-10-29T11:40:12.302Z,2.50
2022-10-29T11:43:14.455Z,2.50
2022-10-29T11:46:42.107Z,2.70
2022-10-29T11:49:46.332Z,2.40
2022-10-29T11:52:59.795Z,2.63
2022-10-29T11:56:03.969Z,2.70
2022-10-29T11:59:13.614Z,2.45
2022-10-29T12:02:25.883Z,2.30
2022-10-29T12:05:27.131Z,2.53
2022-10-29T12:08:52.489Z,2.63
2022-10-29T12:11:53.706Z,3.42
2022-10-29T12:15:12.764Z,2.53
2022-10-29T12:18:24.726Z,2.53
2022-10-29T12:21:31.716Z,2.42
2022-10-29T12:24:51.752Z,2.55
2022-10-29T12:27:52.950Z,2.72
2022-10-29T12:30:54.180Z,2.80
2022-10-29T12:33:59.956Z,2.47
2022-10-29T12:37:04.036Z,3.28
2022-10-29T12:40:12.853Z,2.85
2022-10-29T12:43:18.514Z,3.08
2022-10-29T12:46:21.166Z,3.08
2022-10-29T12:49:42.985Z,2.65
2022-10-29T12:52:55.921Z,2.78
2022-10-29T12:55:57.856Z,3.42
2022-10-29T12:59:19.052Z,2.72
2022-10-29T13:02:32.589Z,3.22
2022-10-29T13:05:33.871Z,2.67
2022-10-29T13:08:35.295Z,2.70
2022-10-29T13:11:46.010Z,2.92
2022-10-29T13:14:54.636Z,2.72
2022-10-29T13:17:57.003Z,2.70
2022-10-29T13:20:58.915Z,3.13
2022-10-29T13:24:04.570Z,2.90
2022-10-29T13:27:25.780Z,3.35
2022-10-29T13:30:28.010Z,3.47
2022-10-29T13:33:29.235Z,3.25
2022-10-29T13:36:37.255Z,2.70
2022-10-29T13:39:38.551Z,2.80
2022-10-29T13:42:39.842Z,2.58
2022-10-29T13:45:42.760Z,2.60
2022-10-29T13:48:45.627Z,2.60
2022-10-29T13:51:52.826Z,2.67
2022-10-29T13:54:57.100Z,2.50
2022-10-29T13:58:07.613Z,2.47
2022-10-29T14:01:11.015Z,2.92
2022-10-29T14:04:23.249Z,2.85
2022-10-29T14:07:28.896Z,2.88
2022-10-29T14:10:58.020Z,2.35
2022-10-29T14:14:00.958Z,2.60
2022-10-29T14:17:12.516Z,2.85
2022-10-29T14:20:21.417Z,2.50
2022-10-29T14:23:22.670Z,2.42
2022-10-29T14:26:24.766Z,2.03
2022-10-29T14:29:26.060Z,2.90
2022-10-29T14:32:27.326Z,2.33
2022-10-29T14:35:28.684Z,2.78
2022-10-29T14:38:53.208Z,2.80
2022-10-29T14:41:55.341Z,2.70
2022-10-29T14:44:57.485Z,2.50
2022-10-29T14:47:59.807Z,2.65
2022-10-29T14:51:01.039Z,2.92
2022-10-29T14:54:02.807Z,2.63
2022-10-29T14:57:06.321Z,2.80
2022-10-29T15:00:07.884Z,2.70
2022-10-29T15:03:18.217Z,2.55
2022-10-29T15:06:20.938Z,2.72
2022-10-29T15:09:27.894Z,2.85
2022-10-29T15:12:36.633Z,2.53
2022-10-29T15:15:37.865Z,3.47
2022-10-29T15:18:39.124Z,2.65
2022-10-29T15:21:40.418Z,2.97
2022-10-29T15:24:44.812Z,3.60
2022-10-29T15:27:46.366Z,4.35
2022-10-29T15:30:47.655Z,3.33
2022-10-29T15:33:53.507Z,3.42
2022-10-29T15:37:00.004Z,3.50
2022-10-29T15:40:12.503Z,3.47
2022-10-29T15:43:27.981Z,2.80
2022-10-29T15:46:31.449Z,7.50
2022-10-29T15:49:33.116Z,4.53
2022-10-29T15:52:52.822Z,3.80
2022-10-29T15:55:54.153Z,3.78
2022-10-29T15:58:56.811Z,3.72
2022-10-29T16:01:58.180Z,3.63
2022-10-29T16:04:59.565Z,3.45
2022-10-29T16:08:02.295Z,4.30
2022-10-29T16:11:07.746Z,3.55
2022-10-29T16:14:09.741Z,4.45
2022-10-29T16:17:14.951Z,5.18
2022-10-29T16:20:17.717Z,4.80
2022-10-29T16:23:18.970Z,5.07
2022-10-29T16:26:21.928Z,4.75
2022-10-29T16:29:23.197Z,5.03
2022-10-29T16:32:25.063Z,4.78
2022-10-29T16:35:27.368Z,5.30
2022-10-29T16:38:28.602Z,5.10
2022-10-29T16:41:30.357Z,6.18
2022-10-29T16:44:31.689Z,4.75
2022-10-29T16:47:32.946Z,4.30
2022-10-29T16:50:34.421Z,5.07
2022-10-29T16:53:35.761Z,5.72
2022-10-29T16:56:36.984Z,4.72
2022-10-29T16:59:38.224Z,5.10
2022-10-29T17:02:40.530Z,4.50
2022-10-29T17:05:43.111Z,5.18
2022-10-29T17:08:44.372Z,7.78
2022-10-29T17:11:46.236Z,5.40
2022-10-29T17:14:47.489Z,8.02
2022-10-29T17:17:48.791Z,7.82
2022-10-29T17:21:00.219Z,6.55
2022-10-29T17:24:06.741Z,5.95
2022-10-29T17:27:09.905Z,5.55
2022-10-29T17:30:11.528Z,6.38
2022-10-29T17:33:12.987Z,8.25
2022-10-29T17:36:15.277Z,6.93
2022-10-29T17:39:16.559Z,5.78
2022-10-29T17:42:17.837Z,6.03
2022-10-29T17:45:20.440Z,7.03
2022-10-29T17:48:24.107Z,5.20
2022-10-29T17:51:27.527Z,7.30
2022-10-29T17:54:28.795Z,5.97
2022-10-29T17:57:30.881Z,6.60
2022-10-29T18:00:32.149Z,5.95
2022-10-29T18:03:33.864Z,5.90
2022-10-29T18:06:35.111Z,5.35
2022-10-29T18:09:36.344Z,5.78
2022-10-29T18:12:37.674Z,5.85
2022-10-29T18:15:39.147Z,7.05
2022-10-29T18:18:54.427Z,6.45
2022-10-29T18:22:02.582Z,6.68
2022-10-29T18:25:04.016Z,6.78
2022-10-29T18:28:05.277Z,5.70
2022-10-29T18:31:06.497Z,6.00
2022-10-29T18:34:08.014Z,5.20
2022-10-29T18:37:09.394Z,5.03
2022-10-29T18:40:11.863Z,6.65
2022-10-29T18:43:13.089Z,9.90
2022-10-29T18:46:14.460Z,8.45
2022-10-29T18:49:15.782Z,8.65
2022-10-29T18:52:17.066Z,10.40
2022-10-29T18:55:18.355Z,7.97
2022-10-29T18:58:20.182Z,8.55
2022-10-29T19:01:23.143Z,6.25
2022-10-29T19:04:24.525Z,5.18
2022-10-29T19:07:25.791Z,8.85
2022-10-29T19:10:27.041Z,6.68
2022-10-29T19:13:28.310Z,8.32
2022-10-29T19:16:30.342Z,6.95
2022-10-29T19:19:31.607Z,8.27
2022-10-29T19:22:32.849Z,6.72
2022-10-29T19:25:38.878Z,6.50
2022-10-29T19:28:40.621Z,7.30
2022-10-29T19:31:43.815Z,6.75
2022-10-29T19:34:45.104Z,8.02
2022-10-29T19:37:46.782Z,7.78
2022-10-29T19:40:48.013Z,8.18
2022-10-29T19:43:49.273Z,8.65
2022-10-29T19:46:51.010Z,7.05
2022-10-29T19:49:52.265Z,6.65
2022-10-29T19:52:53.513Z,7.28
2022-10-29T19:55:55.120Z,6.53
2022-10-29T19:58:56.425Z,6.97
2022-10-29T20:01:57.800Z,7.70
2022-10-29T20:04:59.116Z,7.35
2022-10-29T20:08:00.495Z,7.10
2022-10-29T20:11:01.975Z,6.93
2022-10-29T20:14:03.302Z,8.30
2022-10-29T20:17:04.574Z,6.80
2022-10-29T20:20:06.401Z,6.70
2022-10-29T20:23:07.656Z,7.05
2022-10-29T20:26:09.270Z,7.47
2022-10-29T20:29:12.459Z,8.63
2022-10-29T20:32:13.707Z,8.05
2022-10-29T20:35:15.235Z,8.20
2022-10-29T20:38:16.485Z,6.80
2022-10-29T20:41:18.119Z,6.40
2022-10-29T20:44:19.342Z,6.65
2022-10-29T20:47:20.670Z,6.22
2022-10-29T20:50:22.026Z,5.50
2022-10-29T20:53:23.319Z,5.82
2022-10-29T20:56:25.501Z,6.75
2022-10-29T20:59:26.748Z,5.53
2022-10-29T21:02:28.154Z,5.88
2022-10-29T21:05:29.525Z,5.10
2022-10-29T21:08:30.889Z,4.85
2022-10-29T21:11:32.138Z,5.13
2022-10-29T21:14:33.386Z,5.60
2022-10-29T21:17:34.614Z,5.80
2022-10-29T21:20:35.874Z,6.68
2022-10-29T21:23:37.618Z,5.65
2022-10-29T21:26:38.864Z,5.95
2022-10-29T21:29:40.130Z,5.68
2022-10-29T21:32:41.376Z,4.43
2022-10-29T21:35:42.672Z,5.20
2022-10-29T21:38:43.965Z,5.78
2022-10-29T21:41:45.241Z,5.70
2022-10-29T21:44:46.547Z,5.13
2022-10-29T21:47:48.547Z,5.90
2022-10-29T21:50:49.775Z,5.53
2022-10-29T21:53:51.035Z,5.15
2022-10-29T21:56:52.273Z,5.55
2022-10-29T21:59:53.488Z,5.65
2022-10-29T22:02:55.798Z,5.57
2022-10-29T22:06:02.823Z,4.72
2022-10-29T22:09:04.094Z,4.43
2022-10-29T22:12:05.473Z,4.45
2022-10-29T22:15:07.156Z,4.53
2022-10-29T22:18:08.417Z,5.47
2022-10-29T22:21:14.464Z,4.85
2022-10-29T22:24:15.700Z,4.68
2022-10-29T22:27:16.993Z,5.78
2022-10-29T22:30:18.241Z,4.72
2022-10-29T22:33:19.509Z,4.50
2022-10-29T22:36:22.033Z,4.47
2022-10-29T22:39:24.786Z,5.85
2022-10-29T22:42:26.003Z,5.05
2022-10-29T22:45:27.232Z,4.70
2022-10-29T22:48:28.477Z,4.78
2022-10-29T22:51:31.279Z,5.18
2022-10-29T22:54:32.518Z,5.28
2022-10-29T22:57:33.750Z,4.90
2022-10-29T23:00:35.083Z,4.85
2022-10-29T23:03:37.796Z,5.10
2022-10-29T23:06:39.066Z,4.97
2022-10-29T23:09:40.277Z,5.53
2022-10-29T23:12:41.522Z,6.10
2022-10-29T23:15:49.390Z,4.25
2022-10-29T23:18:51.357Z,4.63
2022-10-29T23:21:52.598Z,4.63
2022-10-29T23:24:53.830Z,4.28
2022-10-29T23:27:55.093Z,4.90
2022-10-29T23:30:56.987Z,4.60
2022-10-29T23:33:58.839Z,4.93
2022-10-29T23:37:01.207Z,4.15
2022-10-29T23:43:06.730Z,3.95
2022-10-29T23:46:07.976Z,4.35
2022-10-29T23:49:09.509Z,3.72
2022-10-29T23:52:10.752Z,4.70
2022-10-29T23:55:12.061Z,3.97
2022-10-29T23:58:13.819Z,4.68
